createdAt,value
2018-03-24T00:01:59.748Z,7.10
2018-03-24T00:04:29.135Z,7.20
2018-03-24T00:06:57.267Z,7.10
2018-03-24T00:09:26.237Z,7.10
2018-03-24T00:11:54.411Z,7.20
2018-03-24T00:14:22.568Z,7.10
2018-03-24T00:16:50.798Z,7.20
2018-03-24T00:19:19.718Z,7.10
2018-03-24T00:21:48.155Z,7.10
2018-03-24T00:24:17.077Z,7.10
2018-03-24T00:26:45.451Z,7.10
2018-03-24T00:29:13.606Z,7.10
2018-03-24T00:31:42.724Z,7.10
2018-03-24T00:34:10.865Z,7.10
2018-03-24T00:36:39.939Z,7.10
2018-03-24T00:39:08.889Z,7.10
2018-03-24T00:41:37.132Z,7.10
2018-03-24T00:44:06.180Z,7.10
2018-03-24T00:46:34.317Z,7.10
2018-03-24T00:49:03.432Z,7.10
2018-03-24T00:51:31.692Z,7.10
2018-03-24T00:53:59.968Z,7.10
2018-03-24T00:56:28.888Z,7.10
2018-03-24T00:58:57.126Z,7.10
2018-03-24T01:01:26.038Z,7.10
2018-03-24T01:03:54.284Z,7.10
2018-03-24T01:06:23.221Z,7.10
2018-03-24T01:08:51.372Z,7.00
2018-03-24T01:11:19.537Z,7.00
2018-03-24T01:13:47.703Z,7.00
2018-03-24T01:16:15.975Z,7.00
2018-03-24T01:18:44.286Z,7.00
2018-03-24T01:21:12.427Z,7.00
2018-03-24T01:23:40.607Z,7.00
2018-03-24T01:26:08.876Z,7.00
2018-03-24T01:28:37.917Z,7.00
2018-03-24T01:31:06.057Z,7.00
2018-03-24T01:33:34.321Z,7.10
2018-03-24T01:36:03.252Z,7.00
2018-03-24T01:38:31.595Z,7.00
2018-03-24T01:40:59.760Z,7.00
2018-03-24T01:43:28.717Z,7.00
2018-03-24T01:45:56.856Z,7.00
2018-03-24T01:48:25.003Z,6.90
2018-03-24T01:50:54.133Z,6.90
2018-03-24T01:53:30.798Z,6.90
2018-03-24T01:55:58.949Z,6.90
2018-03-24T01:58:27.232Z,6.90
2018-03-24T02:00:55.494Z,6.90
2018-03-24T02:03:23.888Z,6.90
2018-03-24T02:05:52.034Z,6.90
2018-03-24T02:08:20.667Z,6.90
2018-03-24T02:10:49.383Z,6.90
2018-03-24T02:13:17.556Z,6.90
2018-03-24T02:15:46.444Z,6.80
2018-03-24T02:18:14.622Z,6.80
2018-03-24T02:20:42.797Z,6.80
2018-03-24T02:23:10.963Z,6.80
2018-03-24T02:25:39.113Z,6.80
2018-03-24T02:28:07.268Z,6.80
2018-03-24T02:30:35.426Z,6.80
2018-03-24T02:33:04.020Z,6.70
2018-03-24T02:35:32.158Z,6.70
2018-03-24T02:38:00.452Z,6.80
2018-03-24T02:40:29.547Z,6.70
2018-03-24T02:42:58.463Z,6.70
2018-03-24T02:45:26.604Z,6.60
2018-03-24T02:47:54.921Z,6.60
2018-03-24T02:50:23.066Z,6.60
2018-03-24T02:52:51.974Z,6.60
2018-03-24T02:55:20.144Z,6.60
2018-03-24T02:57:48.302Z,6.60
2018-03-24T03:00:17.229Z,6.70
2018-03-24T03:02:45.447Z,6.60
2018-03-24T03:05:13.652Z,6.70
2018-03-24T03:07:42.554Z,6.60
2018-03-24T03:10:10.735Z,6.60
2018-03-24T03:12:39.057Z,6.60
2018-03-24T03:15:07.216Z,6.50
2018-03-24T03:17:35.400Z,6.50
2018-03-24T03:20:03.599Z,6.50
2018-03-24T03:22:31.918Z,6.50
2018-03-24T03:25:00.935Z,6.50
2018-03-24T03:27:29.245Z,6.50
2018-03-24T03:29:57.524Z,6.50
2018-03-24T03:32:25.694Z,6.50
2018-03-24T03:34:53.872Z,6.50
2018-03-24T03:37:22.032Z,6.50
2018-03-24T03:39:50.219Z,6.40
2018-03-24T03:42:19.376Z,6.40
2018-03-24T03:44:47.534Z,6.40
2018-03-24T03:47:15.691Z,6.40
2018-03-24T03:49:43.966Z,6.40
2018-03-24T03:52:12.230Z,6.40
2018-03-24T03:54:41.621Z,6.30
2018-03-24T03:57:10.524Z,6.30
2018-03-24T03:59:38.682Z,6.30
2018-03-24T04:02:07.140Z,6.30
2018-03-24T04:04:35.649Z,6.30
2018-03-24T04:07:04.558Z,6.30
2018-03-24T04:09:32.710Z,6.30
2018-03-24T04:12:01.657Z,6.40
2018-03-24T04:14:29.812Z,6.40
2018-03-24T04:16:57.961Z,6.40
2018-03-24T04:19:26.757Z,6.40
2018-03-24T04:21:54.910Z,6.40
2018-03-24T04:24:23.614Z,6.30
2018-03-24T04:26:52.534Z,6.30
2018-03-24T04:29:20.674Z,6.30
2018-03-24T04:31:49.641Z,6.20
2018-03-24T04:34:17.803Z,6.20
2018-03-24T04:36:46.097Z,6.20
2018-03-24T04:39:15.041Z,6.20
2018-03-24T04:41:43.204Z,6.20
2018-03-24T04:44:11.355Z,6.20
2018-03-24T04:46:40.268Z,6.20
2018-03-24T04:49:09.622Z,6.20
2018-03-24T04:51:37.902Z,6.20
2018-03-24T04:54:06.243Z,6.10
2018-03-24T04:56:34.399Z,6.20
2018-03-24T04:59:02.585Z,6.20
2018-03-24T05:01:31.031Z,6.30
2018-03-24T05:04:00.094Z,6.20
2018-03-24T05:06:28.658Z,6.20
2018-03-24T05:08:56.846Z,6.20
2018-03-24T05:11:25.133Z,6.20
2018-03-24T05:13:53.310Z,6.20
2018-03-24T05:16:21.484Z,6.30
2018-03-24T05:18:49.774Z,6.20
2018-03-24T05:21:18.689Z,6.20
2018-03-24T05:23:47.027Z,6.20
2018-03-24T05:26:15.241Z,6.20
2018-03-24T05:28:43.869Z,6.20
2018-03-24T05:31:12.052Z,6.30
2018-03-24T05:33:40.314Z,6.30
2018-03-24T05:36:09.247Z,6.30
2018-03-24T05:38:37.452Z,6.30
2018-03-24T05:41:05.670Z,6.30
2018-03-24T05:43:33.847Z,6.30
2018-03-24T05:46:02.353Z,6.20
2018-03-24T05:48:31.397Z,6.20
2018-03-24T05:51:02.030Z,6.30
2018-03-24T05:53:30.179Z,6.20
2018-03-24T05:55:58.355Z,6.20
2018-03-24T05:58:26.621Z,6.30
2018-03-24T06:00:54.880Z,6.30
2018-03-24T06:03:23.880Z,6.30
2018-03-24T06:05:53.172Z,6.40
2018-03-24T06:08:22.079Z,6.40
2018-03-24T06:10:50.279Z,6.30
2018-03-24T06:13:18.533Z,6.40
2018-03-24T06:15:47.243Z,6.50
2018-03-24T06:18:15.460Z,6.50
2018-03-24T06:20:43.668Z,6.50
2018-03-24T06:23:11.825Z,6.60
2018-03-24T06:25:40.960Z,6.60
2018-03-24T06:28:09.501Z,6.60
2018-03-24T06:30:53.398Z,6.60
2018-03-24T06:33:21.555Z,6.60
2018-03-24T06:35:52.223Z,6.70
2018-03-24T06:38:20.377Z,6.80
2018-03-24T06:40:49.131Z,6.90
2018-03-24T06:43:17.521Z,7.00
2018-03-24T06:45:45.678Z,7.00
2018-03-24T06:48:13.854Z,7.00
2018-03-24T06:50:42.126Z,7.20
2018-03-24T06:53:10.387Z,7.30
2018-03-24T06:55:39.568Z,7.40
2018-03-24T06:58:07.738Z,7.40
2018-03-24T07:00:35.936Z,7.50
2018-03-24T07:03:04.167Z,7.60
2018-03-24T07:05:32.580Z,7.70
2018-03-24T07:08:01.655Z,7.90
2018-03-24T07:10:29.959Z,7.90
2018-03-24T07:12:58.173Z,7.80
2018-03-24T07:15:26.356Z,7.90
2018-03-24T07:17:54.803Z,8.00
2018-03-24T07:20:26.735Z,8.00
2018-03-24T07:22:55.678Z,8.40
2018-03-24T07:25:23.837Z,8.40
2018-03-24T07:27:51.972Z,8.50
2018-03-24T07:30:20.146Z,8.50
2018-03-24T07:32:48.305Z,8.40
2018-03-24T07:35:16.465Z,8.30
2018-03-24T07:37:44.621Z,8.40
2018-03-24T07:40:12.861Z,8.40
2018-03-24T07:42:41.022Z,8.50
2018-03-24T07:45:09.218Z,8.60
2018-03-24T07:47:38.250Z,8.70
2018-03-24T07:50:06.398Z,8.70
2018-03-24T07:52:35.126Z,8.80
2018-03-24T07:55:03.294Z,8.90
2018-03-24T07:57:31.471Z,8.90
2018-03-24T07:59:59.747Z,8.90
2018-03-24T08:02:28.983Z,8.90
2018-03-24T08:04:57.912Z,9.10
2018-03-24T08:07:26.193Z,9.00
2018-03-24T08:09:54.327Z,9.10
2018-03-24T08:12:23.244Z,9.20
2018-03-24T08:14:51.403Z,9.20
2018-03-24T08:17:19.638Z,9.20
2018-03-24T08:19:47.794Z,9.20
2018-03-24T08:22:16.111Z,9.30
2018-03-24T08:24:45.748Z,9.60
2018-03-24T08:27:13.896Z,9.60
2018-03-24T08:29:42.088Z,9.70
2018-03-24T08:32:10.508Z,9.80
2018-03-24T08:34:38.713Z,9.80
2018-03-24T08:37:06.891Z,9.90
2018-03-24T08:39:35.995Z,10.00
2018-03-24T08:42:04.926Z,10.00
2018-03-24T08:44:33.153Z,10.10
2018-03-24T08:47:02.082Z,10.20
2018-03-24T08:49:30.242Z,10.20
2018-03-24T08:51:58.469Z,10.50
2018-03-24T08:54:26.646Z,10.70
2018-03-24T08:56:56.327Z,10.50
2018-03-24T08:59:24.699Z,10.50
2018-03-24T09:01:53.047Z,10.50
2018-03-24T09:04:21.356Z,10.70
2018-03-24T09:06:49.591Z,10.90
2018-03-24T09:09:19.075Z,11.30
2018-03-24T09:11:48.769Z,11.40
2018-03-24T09:14:17.078Z,11.30
2018-03-24T09:16:46.896Z,11.00
2018-03-24T09:19:15.639Z,11.00
2018-03-24T09:21:43.810Z,11.10
2018-03-24T09:24:12.880Z,11.20
2018-03-24T09:26:41.042Z,11.40
2018-03-24T09:29:09.298Z,11.40
2018-03-24T09:31:38.504Z,11.00
2018-03-24T09:34:07.695Z,10.70
2018-03-24T09:36:36.682Z,10.60
2018-03-24T09:39:05.595Z,10.70
2018-03-24T09:41:33.761Z,10.70
2018-03-24T09:44:02.689Z,10.70
2018-03-24T09:46:30.991Z,10.70
2018-03-24T09:48:59.147Z,10.70
2018-03-24T09:51:27.607Z,10.70
2018-03-24T09:53:55.763Z,10.60
2018-03-24T09:56:23.946Z,10.50
2018-03-24T09:58:52.140Z,10.50
2018-03-24T10:01:20.435Z,10.60
2018-03-24T10:03:48.759Z,10.50
2018-03-24T10:06:16.941Z,10.70
2018-03-24T10:08:45.838Z,10.90
2018-03-24T10:11:14.011Z,10.90
2018-03-24T10:13:42.200Z,11.00
2018-03-24T10:16:10.390Z,11.10
2018-03-24T10:18:38.543Z,11.20
2018-03-24T10:21:07.546Z,11.40
2018-03-24T10:23:59.412Z,11.40
2018-03-24T10:26:27.568Z,11.50
2018-03-24T10:28:55.735Z,11.50
2018-03-24T10:31:23.954Z,11.60
2018-03-24T10:33:58.504Z,11.60
2018-03-24T10:36:27.369Z,11.60
2018-03-24T10:38:56.716Z,11.50
2018-03-24T10:41:24.896Z,11.50
2018-03-24T10:43:53.868Z,11.50
2018-03-24T10:46:22.031Z,11.50
2018-03-24T10:48:50.343Z,11.60
2018-03-24T10:51:18.555Z,11.60
2018-03-24T10:53:47.549Z,11.50
2018-03-24T10:56:15.912Z,11.50
2018-03-24T10:58:44.070Z,11.60
2018-03-24T11:01:14.150Z,11.60
2018-03-24T11:03:42.400Z,11.70
2018-03-24T11:06:11.305Z,11.80
2018-03-24T11:08:39.832Z,11.70
2018-03-24T11:11:08.015Z,11.90
2018-03-24T11:13:36.183Z,11.90
2018-03-24T11:16:04.479Z,12.00
2018-03-24T11:18:32.633Z,12.00
2018-03-24T11:21:01.668Z,12.40
2018-03-24T11:23:30.602Z,12.50
2018-03-24T11:25:58.792Z,12.50
2018-03-24T11:28:26.940Z,12.70
2018-03-24T11:30:55.185Z,12.70
2018-03-24T11:33:23.370Z,12.80
2018-03-24T11:35:51.623Z,12.80
2018-03-24T11:38:22.894Z,12.90
2018-03-24T11:40:51.054Z,13.00
2018-03-24T11:43:20.005Z,13.30
2018-03-24T11:45:48.153Z,13.30
2018-03-24T11:48:16.307Z,13.40
2018-03-24T11:50:44.469Z,13.60
2018-03-24T11:53:13.655Z,14.00
2018-03-24T11:55:43.066Z,14.20
2018-03-24T11:58:12.105Z,14.30
2018-03-24T12:00:40.276Z,14.30
2018-03-24T12:03:08.538Z,14.40
2018-03-24T12:05:36.759Z,14.40
2018-03-24T12:08:06.603Z,14.50
2018-03-24T12:10:34.808Z,14.60
2018-03-24T12:13:03.078Z,14.70
2018-03-24T12:15:31.347Z,14.80
2018-03-24T12:17:59.520Z,15.00
2018-03-24T12:20:27.673Z,15.00
2018-03-24T12:22:56.726Z,14.70
2018-03-24T12:25:24.902Z,14.70
2018-03-24T12:27:53.055Z,14.80
2018-03-24T12:30:21.206Z,14.90
2018-03-24T12:32:49.398Z,15.00
2018-03-24T12:35:21.570Z,15.30
2018-03-24T12:37:49.882Z,15.30
2018-03-24T12:40:18.201Z,15.50
2018-03-24T12:42:47.322Z,15.60
2018-03-24T12:45:15.510Z,15.60
2018-03-24T12:47:44.217Z,15.70
2018-03-24T12:50:12.384Z,15.60
2018-03-24T12:52:40.546Z,15.40
2018-03-24T12:55:08.827Z,15.10
2018-03-24T12:57:37.139Z,14.90
2018-03-24T13:00:05.300Z,14.80
2018-03-24T13:02:34.230Z,14.50
2018-03-24T13:05:02.579Z,14.40
2018-03-24T13:07:31.532Z,14.30
2018-03-24T13:09:59.715Z,14.30
2018-03-24T13:12:27.886Z,14.40
2018-03-24T13:14:56.132Z,14.40
2018-03-24T13:17:24.473Z,14.60
2018-03-24T13:19:53.395Z,15.30
2018-03-24T13:22:22.499Z,15.20
2018-03-24T13:24:50.703Z,15.20
2018-03-24T13:27:19.825Z,15.00
2018-03-24T13:29:48.957Z,14.80
2018-03-24T13:32:17.309Z,14.80
2018-03-24T13:34:46.250Z,15.00
2018-03-24T13:37:14.421Z,15.00
2018-03-24T13:39:42.577Z,15.10
2018-03-24T13:42:10.724Z,15.10
2018-03-24T13:44:39.021Z,15.20
2018-03-24T13:47:07.908Z,15.30
2018-03-24T13:49:36.092Z,15.30
2018-03-24T13:52:04.302Z,15.30
2018-03-24T13:54:32.458Z,15.40
2018-03-24T13:57:01.374Z,15.40
2018-03-24T13:59:30.356Z,15.50
2018-03-24T14:01:58.515Z,15.50
2018-03-24T14:04:27.586Z,15.30
2018-03-24T14:06:55.816Z,15.20
2018-03-24T14:09:23.971Z,15.00
2018-03-24T14:11:52.134Z,14.90
2018-03-24T14:14:20.294Z,14.90
2018-03-24T14:16:48.446Z,14.80
2018-03-24T14:19:16.753Z,14.80
2018-03-24T14:21:45.115Z,14.80
2018-03-24T14:24:13.353Z,14.80
2018-03-24T14:26:42.277Z,15.00
2018-03-24T14:29:10.522Z,15.00
2018-03-24T14:31:39.610Z,14.70
2018-03-24T14:34:08.556Z,14.70
2018-03-24T14:36:36.712Z,14.60
2018-03-24T14:39:04.889Z,14.60
2018-03-24T14:41:33.032Z,14.50
2018-03-24T14:44:02.061Z,14.70
2018-03-24T14:46:30.208Z,14.70
2018-03-24T14:48:58.346Z,14.80
2018-03-24T14:51:26.522Z,14.80
2018-03-24T14:53:56.267Z,14.50
2018-03-24T14:56:24.441Z,14.50
2018-03-24T14:58:52.631Z,14.50
2018-03-24T15:01:20.867Z,14.50
2018-03-24T15:03:49.796Z,14.60
2018-03-24T15:06:17.974Z,14.60
2018-03-24T15:08:46.998Z,14.60
2018-03-24T15:11:15.177Z,14.60
2018-03-24T15:13:43.449Z,14.70
2018-03-24T15:16:11.625Z,14.70
2018-03-24T15:18:39.911Z,14.70
2018-03-24T15:21:08.089Z,14.80
2018-03-24T15:23:36.245Z,14.90
2018-03-24T15:26:04.408Z,14.80
2018-03-24T15:28:32.581Z,14.90
2018-03-24T15:31:12.792Z,15.00
2018-03-24T15:33:53.660Z,14.80
2018-03-24T15:36:34.355Z,14.60
2018-03-24T15:39:02.662Z,14.60
2018-03-24T15:41:30.835Z,14.60
2018-03-24T15:43:59.175Z,14.60
2018-03-24T15:46:27.483Z,14.60
2018-03-24T15:48:55.774Z,14.80
2018-03-24T15:51:24.714Z,15.40
2018-03-24T15:53:52.881Z,15.40
2018-03-24T15:56:21.865Z,16.40
2018-03-24T15:58:50.802Z,16.60
2018-03-24T16:01:18.985Z,16.50
2018-03-24T16:03:47.137Z,16.60
2018-03-24T16:06:16.572Z,16.60
2018-03-24T16:08:44.732Z,16.70
2018-03-24T16:11:13.076Z,16.90
2018-03-24T16:13:41.447Z,17.00
2018-03-24T16:16:09.629Z,17.10
2018-03-24T16:18:37.810Z,17.40
2018-03-24T16:21:06.076Z,17.50
2018-03-24T16:23:34.252Z,17.40
2018-03-24T16:26:02.392Z,17.50
2018-03-24T16:28:30.631Z,17.60
2018-03-24T16:30:58.817Z,17.70
2018-03-24T16:33:26.968Z,17.70
2018-03-24T16:35:55.270Z,17.70
2018-03-24T16:38:23.517Z,17.80
2018-03-24T16:40:51.714Z,18.00
2018-03-24T16:43:19.978Z,17.90
2018-03-24T16:45:48.355Z,17.80
2018-03-24T16:48:16.792Z,17.80
2018-03-24T16:50:45.868Z,17.80
2018-03-24T16:53:14.914Z,17.70
2018-03-24T16:55:43.267Z,17.50
2018-03-24T16:58:12.235Z,17.30
2018-03-24T17:00:40.417Z,17.30
2018-03-24T17:03:09.339Z,17.30
2018-03-24T17:05:37.493Z,17.20
2018-03-24T17:08:06.531Z,17.20
2018-03-24T17:10:34.781Z,17.20
2018-03-24T17:13:02.930Z,17.20
2018-03-24T17:15:31.845Z,16.90
2018-03-24T17:18:00.026Z,16.90
2018-03-24T17:20:28.222Z,16.50
2018-03-24T17:22:56.541Z,15.90
2018-03-24T17:25:25.765Z,14.80
2018-03-24T17:27:54.009Z,14.80
2018-03-24T17:30:22.290Z,14.40
2018-03-24T17:32:51.200Z,13.60
2018-03-24T17:35:19.332Z,13.60
2018-03-24T17:37:49.040Z,13.00
2018-03-24T17:40:17.190Z,13.10
2018-03-24T17:42:45.395Z,12.90
2018-03-24T17:45:13.724Z,12.60
2018-03-24T17:47:42.082Z,12.40
2018-03-24T17:50:11.504Z,11.90
2018-03-24T17:52:39.719Z,11.90
2018-03-24T17:55:08.669Z,11.60
2018-03-24T17:57:36.863Z,11.50
2018-03-24T18:00:06.365Z,11.30
2018-03-24T18:02:34.667Z,11.30
2018-03-24T18:05:02.886Z,11.20
2018-03-24T18:07:31.259Z,11.00
2018-03-24T18:10:00.199Z,10.80
2018-03-24T18:12:28.427Z,10.70
2018-03-24T18:14:57.379Z,10.60
2018-03-24T18:17:25.653Z,10.60
2018-03-24T18:19:53.825Z,10.60
2018-03-24T18:22:22.170Z,10.50
2018-03-24T18:24:50.348Z,10.40
2018-03-24T18:27:18.588Z,10.40
2018-03-24T18:29:47.693Z,10.40
2018-03-24T18:32:16.709Z,10.40
2018-03-24T18:34:44.972Z,10.40
2018-03-24T18:37:13.174Z,10.40
2018-03-24T18:39:41.381Z,10.20
2018-03-24T18:42:09.573Z,10.10
2018-03-24T18:44:38.528Z,10.00
2018-03-24T18:47:06.854Z,9.90
2018-03-24T18:49:35.771Z,9.70
2018-03-24T18:52:03.936Z,9.70
2018-03-24T18:54:32.118Z,9.60
2018-03-24T18:57:00.351Z,9.60
2018-03-24T18:59:30.086Z,9.40
2018-03-24T19:01:58.270Z,9.40
2018-03-24T19:04:26.427Z,9.40
2018-03-24T19:06:55.365Z,9.20
2018-03-24T19:09:24.444Z,9.20
2018-03-24T19:11:52.604Z,9.10
2018-03-24T19:14:20.770Z,9.10
2018-03-24T19:16:49.060Z,9.10
2018-03-24T19:19:17.367Z,9.00
2018-03-24T19:21:45.530Z,8.90
2018-03-24T19:24:13.706Z,8.80
2018-03-24T19:26:41.887Z,8.70
2018-03-24T19:29:10.260Z,8.70
2018-03-24T19:31:38.512Z,8.60
2018-03-24T19:34:06.763Z,8.60
2018-03-24T19:36:34.947Z,8.50
2018-03-24T19:39:03.118Z,8.40
2018-03-24T19:41:31.894Z,8.50
2018-03-24T19:44:00.821Z,8.40
2018-03-24T19:46:28.984Z,8.40
2018-03-24T19:48:57.174Z,8.40
2018-03-24T19:51:25.555Z,8.20
2018-03-24T19:53:53.718Z,8.10
2018-03-24T19:56:22.002Z,8.10
2018-03-24T19:58:50.183Z,8.10
2018-03-24T20:01:18.406Z,8.00
2018-03-24T20:03:46.554Z,8.00
2018-03-24T20:06:14.807Z,7.90
2018-03-24T20:08:42.979Z,7.90
2018-03-24T20:11:11.124Z,7.80
2018-03-24T20:13:40.070Z,7.80
2018-03-24T20:16:08.215Z,7.70
2018-03-24T20:18:36.377Z,7.70
2018-03-24T20:21:04.643Z,7.70
2018-03-24T20:23:32.913Z,7.70
2018-03-24T20:26:01.819Z,7.70
2018-03-24T20:28:30.095Z,7.60
2018-03-24T20:30:58.448Z,7.70
2018-03-24T20:33:27.368Z,7.50
2018-03-24T20:35:55.529Z,7.50
2018-03-24T20:38:23.777Z,7.40
2018-03-24T20:40:51.935Z,7.30
2018-03-24T20:43:20.689Z,7.20
2018-03-24T20:45:48.941Z,7.20
2018-03-24T20:48:17.135Z,7.10
2018-03-24T20:50:45.373Z,7.10
2018-03-24T20:53:14.300Z,7.00
2018-03-24T20:55:42.562Z,6.90
2018-03-24T20:58:10.726Z,7.00
2018-03-24T21:00:38.923Z,6.90
2018-03-24T21:03:07.063Z,6.90
2018-03-24T21:05:36.006Z,6.80
2018-03-24T21:08:04.289Z,6.70
2018-03-24T21:10:32.593Z,6.70
2018-03-24T21:13:00.761Z,6.70
2018-03-24T21:15:28.921Z,6.70
2018-03-24T21:17:57.189Z,6.60
2018-03-24T21:20:25.345Z,6.50
2018-03-24T21:22:53.526Z,6.50
2018-03-24T21:25:21.681Z,6.40
2018-03-24T21:27:50.205Z,6.40
2018-03-24T21:30:18.930Z,6.30
2018-03-24T21:32:47.101Z,6.30
2018-03-24T21:35:16.027Z,6.20
2018-03-24T21:37:44.168Z,6.20
2018-03-24T21:40:12.305Z,6.20
2018-03-24T21:42:40.716Z,6.10
2018-03-24T21:45:09.647Z,5.90
2018-03-24T21:47:38.085Z,5.90
2018-03-24T21:50:07.303Z,5.80
2018-03-24T21:52:35.470Z,5.80
2018-03-24T21:55:03.887Z,5.80
2018-03-24T21:57:32.214Z,5.70
2018-03-24T22:00:01.115Z,5.70
2018-03-24T22:02:29.306Z,5.60
2018-03-24T22:04:57.595Z,5.60
2018-03-24T22:07:32.657Z,5.60
2018-03-24T22:10:00.924Z,5.60
2018-03-24T22:12:29.080Z,5.60
2018-03-24T22:14:57.523Z,5.60
2018-03-24T22:17:25.764Z,5.60
2018-03-24T22:19:53.940Z,5.60
2018-03-24T22:22:22.348Z,5.60
2018-03-24T22:24:51.297Z,5.50
2018-03-24T22:27:20.365Z,5.50
2018-03-24T22:29:48.523Z,5.50
2018-03-24T22:32:16.909Z,5.40
2018-03-24T22:34:45.076Z,5.40
2018-03-24T22:37:13.233Z,5.30
2018-03-24T22:39:42.218Z,5.20
2018-03-24T22:42:10.319Z,5.20
2018-03-24T22:44:38.503Z,5.10
2018-03-24T22:47:06.666Z,5.10
2018-03-24T22:49:34.821Z,5.00
2018-03-24T22:52:03.494Z,5.00
2018-03-24T22:54:31.654Z,5.00
2018-03-24T22:56:59.996Z,5.00
2018-03-24T22:59:29.097Z,4.90
2018-03-24T23:01:57.249Z,4.90
2018-03-24T23:04:25.930Z,4.90
2018-03-24T23:06:54.106Z,4.80
2018-03-24T23:09:22.293Z,4.80
2018-03-24T23:11:50.442Z,4.80
2018-03-24T23:14:18.604Z,4.80
2018-03-24T23:16:46.882Z,4.80
2018-03-24T23:19:15.922Z,4.60
2018-03-24T23:21:44.110Z,4.60
2018-03-24T23:24:12.366Z,4.60
2018-03-24T23:26:40.510Z,4.50
2018-03-24T23:29:08.874Z,4.40
2018-03-24T23:31:37.812Z,4.30
2018-03-24T23:34:05.974Z,4.30
2018-03-24T23:36:34.140Z,4.30
2018-03-24T23:39:02.499Z,4.30
2018-03-24T23:41:31.483Z,4.20
2018-03-24T23:44:00.547Z,4.20
2018-03-24T23:46:28.721Z,4.20
2018-03-24T23:48:56.875Z,4.10
2018-03-24T23:51:25.037Z,4.10
2018-03-24T23:53:53.220Z,4.00
2018-03-24T23:56:21.556Z,4.00
2018-03-24T23:58:50.485Z,3.90
